This is the latest recevied weather packets stored in our database for station/object K0SNA. If no packets are shown the sender has not sent any weather packets the latest 1 day(s).
| Time | Temp. | Humidity | Pressure | Rain* | Wind** | Luminosity | Snow |
|---|---|---|---|---|---|---|---|
| 1778081533 | 5° C | 52% | 1017.2 hPa | 0 mm | - | 209 W/m² | - |
| 1778080018 | 4.44° C | 55% | 1017.4 hPa | 0 mm | - | 232 W/m² | - |
| 1778078504 | 3.89° C | 54% | 1017.5 hPa | 0 mm | - | 169 W/m² | - |
| 1778076992 | 3.89° C | 57% | 1017.3 hPa | 0 mm | - | 131 W/m² | - |
| 1778075782 | 3.89° C | 57% | 1017.3 hPa | 0 mm | - | 108 W/m² | - |
| 1778075478 | 3.33° C | 58% | 1017.3 hPa | 0 mm | - | 104 W/m² | - |
| 1778074265 | 3.33° C | 59% | 1017.3 hPa | 0 mm | - | 101 W/m² | - |
| 1778073659 | 3.33° C | 59% | 1017 hPa | 0 mm | - | 99 W/m² | - |
| 1778071238 | 3.89° C | 58% | 1016.6 hPa | 0 mm | - | 101 W/m² | - |
| 1778070634 | 3.33° C | 59% | 1016.6 hPa | 0 mm | - | 137 W/m² | - |
| 1778069120 | 2.22° C | 65% | 1016.3 hPa | 0 mm | - | 45 W/m² | - |
| 1778068213 | 1.11° C | 70% | 1015.9 hPa | 0 mm | - | 24 W/m² | - |
| 1778066095 | -0.56° C | 77% | 1015.6 hPa | 0 mm | - | 8 W/m² | - |
| 1778064882 | -0.56° C | 76% | 1015.8 hPa | 0 mm | - | 2 W/m² | - |
| 1778062158 | 0.56° C | 70% | 1015.4 hPa | 0 mm | - | 0 W/m² | - |
| 1778061856 | 0.56° C | 70% | 1015.3 hPa | 0 mm | - | 0 W/m² | - |
| 1778061554 | 0.56° C | 70% | 1015.3 hPa | 0 mm | - | 0 W/m² | - |
| 1778060948 | 0° C | 71% | 1015.2 hPa | 0 mm | - | 0 W/m² | - |
| 1778060647 | 0° C | 72% | 1015.2 hPa | 0 mm | - | 0 W/m² | - |
| 1778060344 | 0° C | 73% | 1015.1 hPa | 0 mm | - | 0 W/m² | - |
| 1778059437 | 0° C | 72% | 1015.3 hPa | 0 mm | - | 0 W/m² | - |
| 1778057923 | 0.56° C | 68% | 1015.3 hPa | 0 mm | - | 0 W/m² | - |
| 1778057619 | 0.56° C | 67% | 1015.4 hPa | 0 mm | - | 0 W/m² | - |
| 1778056709 | 0.56° C | 67% | 1014.8 hPa | 0 mm | - | 0 W/m² | - |
| 1778056104 | 0.56° C | 69% | 1014.8 hPa | 0 mm | - | 0 W/m² | - |
* Rain latest hour (hover to see other rain measurements)
** Current wind speed in m/s (hover to see current wind gust speed)